Time;durP1;ratioP1;P1;durP2;ratioP2;P2;SDS_P1;SDS_P2;PMS_P1;PMS_P2;Temp;Humidity;BMP_temperature;BMP_pressure;BME280_temperature;BME280_humidity;BME280_pressure;Samples;Min_cycle;Max_cycle;Signal;HPM_P1;HPM_P2
2023/05/09 00:01:38;;;;;;;0.80;0.55;;;;;;;17.78;65.30;101830.19;5059882;28;20017;-81
2023/05/09 00:04:04;;;;;;;0.40;0.40;;;;;;;17.76;65.42;101832.94;5054269;28;20032;-81
2023/05/09 00:06:31;;;;;;;0.60;0.60;;;;;;;17.75;65.59;101831.19;5058072;28;20025;-80
2023/05/09 00:08:57;;;;;;;0.82;0.82;;;;;;;17.73;65.74;101824.13;5057807;28;20037;-81
2023/05/09 00:11:23;;;;;;;0.10;0.10;;;;;;;17.70;65.61;101817.06;5055119;28;20159;-80
2023/05/09 00:13:50;;;;;;;0.10;0.10;;;;;;;17.68;65.93;101826.97;5059333;28;20024;-80
2023/05/09 00:16:17;;;;;;;0.30;0.30;;;;;;;17.66;65.70;101822.59;5050779;28;20021;-81
2023/05/09 00:18:43;;;;;;;0.20;0.20;;;;;;;17.65;65.72;101819.03;5059058;28;20108;-82
2023/05/09 00:21:10;;;;;;;0.52;0.43;;;;;;;17.63;65.88;101819.09;5054399;28;20036;-81
2023/05/09 00:23:37;;;;;;;0.10;0.10;;;;;;;17.61;65.89;101815.59;5051680;28;20416;-81
2023/05/09 00:26:03;;;;;;;0.40;0.40;;;;;;;17.60;66.09;101818.31;5053588;28;20083;-80
2023/05/09 00:28:29;;;;;;;0.10;0.10;;;;;;;17.58;65.89;101817.50;5065431;28;20104;-81
2023/05/09 00:30:56;;;;;;;0.55;0.55;;;;;;;17.58;65.96;101807.66;5056065;28;20056;-80
2023/05/09 00:33:25;;;;;;;0.10;0.10;;;;;;;17.57;66.05;101810.38;5054961;28;20060;-81
2023/05/09 00:35:52;;;;;;;1.08;0.57;;;;;;;17.56;65.89;101798.78;5055829;28;20036;-80
2023/05/09 00:38:19;;;;;;;0.13;0.13;;;;;;;17.56;66.20;101803.28;5051374;28;20033;-81
2023/05/09 00:40:45;;;;;;;1.45;0.95;;;;;;;17.53;65.94;101804.25;5056025;28;20039;-81
2023/05/09 00:43:11;;;;;;;0.98;0.98;;;;;;;17.54;66.00;101805.13;5057197;28;20052;-80
2023/05/09 00:45:37;;;;;;;0.15;0.15;;;;;;;17.53;65.98;101801.56;5052910;28;20029;-81
2023/05/09 00:48:03;;;;;;;0.22;0.15;;;;;;;17.53;66.06;101789.97;5053893;28;20036;-81
2023/05/09 00:50:30;;;;;;;0.20;0.20;;;;;;;17.54;66.07;101789.06;5056802;28;20029;-81
2023/05/09 00:52:57;;;;;;;0.35;0.35;;;;;;;17.52;65.91;101785.53;5055233;28;20039;-81
2023/05/09 00:55:23;;;;;;;5.50;0.55;;;;;;;17.52;66.00;101788.22;5049413;28;20528;-81
2023/05/09 00:57:49;;;;;;;4.22;0.73;;;;;;;17.50;66.00;101782.94;5052554;28;20044;-81
2023/05/09 01:00:16;;;;;;;0.20;0.20;;;;;;;17.51;65.95;101787.34;5054878;28;20029;-80
2023/05/09 01:02:45;;;;;;;0.17;0.17;;;;;;;17.50;66.05;101776.69;5055317;28;20043;-81
2023/05/09 01:05:11;;;;;;;0.20;0.20;;;;;;;17.49;66.21;101780.31;5054763;28;20033;-81
2023/05/09 01:08:01;;;;;;;0.75;0.75;;;;;;;17.52;66.16;101780.19;5056846;28;20037;-81
2023/05/09 01:10:59;;;;;;;1.85;1.75;;;;;;;17.52;66.16;101754.28;5052983;28;20467;-81
2023/05/09 01:13:37;;;;;;;0.15;0.15;;;;;;;17.48;66.00;101755.28;5055379;28;20040;-80
2023/05/09 01:19:25;;;;;;;0.20;0.20;;;;;;;17.50;66.06;101736.50;5068003;28;20403;-82
2023/05/09 01:21:53;;;;;;;0.20;0.20;;;;;;;17.43;66.29;101742.09;5047946;28;20073;-81
2023/05/09 01:24:37;;;;;;;1.75;0.40;;;;;;;17.46;66.22;101739.28;5048862;28;20025;-82
2023/05/09 01:27:29;;;;;;;3.13;1.67;;;;;;;17.46;66.27;101735.75;5042069;28;20028;-81
2023/05/09 01:29:56;;;;;;;;;;;;;;;17.54;66.17;101724.75;5043222;28;20033;-81
2023/05/09 01:32:26;;;;;;;0.40;0.40;;;;;;;17.47;66.27;101724.09;5052479;28;20597;-81
2023/05/09 01:34:58;;;;;;;0.60;0.60;;;;;;;17.45;66.38;101716.09;5052804;28;20025;-81
2023/05/09 01:37:32;;;;;;;0.10;0.10;;;;;;;17.48;66.26;101715.09;5052661;28;20076;-81
2023/05/09 01:40:07;;;;;;;0.10;0.10;;;;;;;17.43;66.16;101712.63;5053718;28;20049;-81
2023/05/09 01:42:42;;;;;;;0.20;0.20;;;;;;;17.45;66.20;101704.50;5047357;28;20061;-81
2023/05/09 01:45:10;;;;;;;0.10;0.10;;;;;;;17.42;66.38;101710.88;5051049;28;20033;-81
2023/05/09 01:47:38;;;;;;;0.15;0.15;;;;;;;17.43;66.13;101709.94;5042839;28;20033;-82
2023/05/09 01:50:05;;;;;;;0.57;0.57;;;;;;;17.42;66.43;101705.50;5044846;28;20032;-82
2023/05/09 01:52:32;;;;;;;0.10;0.10;;;;;;;17.41;66.07;101698.38;5048334;28;20047;-82
2023/05/09 01:55:01;;;;;;;0.10;0.10;;;;;;;17.42;66.29;101693.91;5049922;28;20508;-81
2023/05/09 01:57:29;;;;;;;0.10;0.10;;;;;;;17.42;66.03;101699.25;5041479;28;20053;-82
2023/05/09 01:59:57;;;;;;;1.33;1.25;;;;;;;17.43;66.29;101695.66;5055765;28;20040;-80
2023/05/09 02:02:26;;;;;;;0.10;0.10;;;;;;;17.42;66.39;101694.78;5049375;28;20029;-81
2023/05/09 02:04:55;;;;;;;0.28;0.28;;;;;;;17.40;66.12;101695.78;5047032;28;20092;-82
2023/05/09 02:07:22;;;;;;;0.10;0.10;;;;;;;17.39;65.96;101697.56;5052121;28;20627;-82
2023/05/09 02:09:52;;;;;;;0.20;0.20;;;;;;;17.39;66.29;101683.31;5048394;28;20065;-81
2023/05/09 02:12:18;;;;;;;0.35;0.35;;;;;;;17.37;66.39;101688.72;5048947;28;20067;-82
2023/05/09 02:14:45;;;;;;;0.10;0.10;;;;;;;17.37;66.10;101680.69;5049418;28;20504;-82
2023/05/09 02:17:15;;;;;;;0.10;0.10;;;;;;;17.38;65.99;101681.53;5047673;28;20041;-82
2023/05/09 02:19:42;;;;;;;0.00;0.00;;;;;;;17.36;66.21;101689.66;5049648;28;20041;-81
2023/05/09 02:22:09;;;;;;;0.10;0.10;;;;;;;17.36;66.03;101684.28;5049303;28;20392;-82
2023/05/09 02:24:36;;;;;;;0.10;0.10;;;;;;;17.35;66.05;101679.84;5049638;28;20033;-81
2023/05/09 02:27:03;;;;;;;0.10;0.10;;;;;;;17.33;66.29;101679.03;5050310;28;20032;-81
2023/05/09 02:29:39;;;;;;;0.00;0.00;;;;;;;17.33;66.02;101676.34;5036846;28;20466;-81
2023/05/09 02:32:15;;;;;;;0.20;0.20;;;;;;;17.31;66.02;101670.19;5045042;28;20025;-80
2023/05/09 02:34:42;;;;;;;0.10;0.10;;;;;;;17.30;66.43;101668.44;5058160;28;20034;-81
2023/05/09 02:37:09;;;;;;;0.20;0.20;;;;;;;17.30;66.40;101668.44;5038503;28;20077;-82
2023/05/09 02:39:36;;;;;;;0.10;0.10;;;;;;;17.30;66.51;101665.75;5040334;28;20270;-82
2023/05/09 02:42:08;;;;;;;0.10;0.10;;;;;;;17.33;66.36;101662.94;5040123;28;20033;-82
2023/05/09 02:44:34;;;;;;;0.10;0.10;;;;;;;17.31;66.25;101659.47;5036993;28;20136;-81
2023/05/09 02:47:02;;;;;;;0.10;0.10;;;;;;;17.30;66.07;101657.72;5031922;28;20021;-81
2023/05/09 02:49:29;;;;;;;0.10;0.10;;;;;;;17.27;66.35;101652.44;5027164;28;20025;-82
2023/05/09 02:51:55;;;;;;;0.10;0.10;;;;;;;17.25;66.60;101655.19;5037832;28;20043;-82
2023/05/09 02:54:21;;;;;;;0.10;0.10;;;;;;;17.25;66.45;101655.19;5033322;28;20067;-81
2023/05/09 02:56:47;;;;;;;0.10;0.10;;;;;;;17.26;66.59;101654.28;5040349;28;20026;-81
2023/05/09 02:59:14;;;;;;;0.10;0.10;;;;;;;17.25;66.89;101640.94;5035515;28;20113;-82
2023/05/09 03:01:40;;;;;;;0.10;0.10;;;;;;;17.26;66.49;101634.66;5037367;28;20033;-81
2023/05/09 03:04:06;;;;;;;1.27;1.17;;;;;;;17.25;66.37;101633.75;5039380;28;20053;-82
2023/05/09 03:06:32;;;;;;;0.10;0.10;;;;;;;17.25;66.42;101632.91;5039127;28;20033;-82
2023/05/09 03:08:58;;;;;;;0.05;0.05;;;;;;;17.25;66.51;101627.53;5048366;28;20513;-81
2023/05/09 03:11:24;;;;;;;0.10;0.10;;;;;;;17.24;66.37;101625.78;5042530;28;20045;-81
2023/05/09 03:13:50;;;;;;;0.20;0.20;;;;;;;17.24;66.69;101625.78;5043173;28;20033;-81
2023/05/09 03:16:17;;;;;;;0.95;0.47;;;;;;;17.24;66.73;101629.34;5030292;28;20116;-81
2023/05/09 03:18:43;;;;;;;0.82;0.82;;;;;;;17.25;66.32;101627.53;5037142;28;20038;-82
2023/05/09 03:21:09;;;;;;;0.10;0.10;;;;;;;17.25;66.46;101616.84;5038851;28;20041;-82
2023/05/09 03:23:36;;;;;;;0.10;0.10;;;;;;;17.24;66.52;101615.09;5036698;28;20032;-82
2023/05/09 03:26:02;;;;;;;0.10;0.10;;;;;;;17.23;66.28;101608.84;5035948;28;20030;-82
2023/05/09 03:28:28;;;;;;;0.43;0.43;;;;;;;17.22;66.21;101603.53;5035989;28;20037;-81
2023/05/09 03:30:54;;;;;;;0.10;0.10;;;;;;;17.21;66.70;101610.72;5033888;28;20034;-82
2023/05/09 03:33:20;;;;;;;0.13;0.13;;;;;;;17.22;66.57;101606.22;5023275;28;20029;-81
2023/05/09 03:35:46;;;;;;;0.25;0.25;;;;;;;17.20;66.26;101603.59;5029960;28;20091;-82
2023/05/09 03:38:12;;;;;;;0.00;0.00;;;;;;;17.19;66.66;101606.34;5020822;28;20030;-82
2023/05/09 03:40:38;;;;;;;0.10;0.10;;;;;;;17.19;66.77;101601.84;5026992;28;20042;-81
2023/05/09 03:43:05;;;;;;;0.10;0.10;;;;;;;17.20;67.06;101608.97;5021057;28;20095;-81
2023/05/09 03:45:31;;;;;;;0.03;0.03;;;;;;;17.19;66.61;101595.63;5023714;28;20081;-81
2023/05/09 03:47:57;;;;;;;0.30;0.30;;;;;;;17.19;66.82;101595.63;5028531;28;20020;-81
2023/05/09 03:50:23;;;;;;;0.10;0.10;;;;;;;17.18;66.71;101597.41;5027979;28;20022;-81
2023/05/09 03:52:50;;;;;;;3.65;1.08;;;;;;;17.19;66.99;101590.28;5028872;28;20437;-82
2023/05/09 03:55:16;;;;;;;0.10;0.10;;;;;;;17.18;66.83;101578.66;5019933;28;20072;-81
2023/05/09 03:57:42;;;;;;;0.05;0.05;;;;;;;17.18;66.98;101580.50;5024809;28;20100;-81
2023/05/09 04:00:09;;;;;;;0.00;0.00;;;;;;;17.18;67.17;101572.44;5027137;28;20045;-81
2023/05/09 04:02:35;;;;;;;0.52;0.52;;;;;;;17.18;66.91;101576.00;5027474;28;20037;-81
2023/05/09 04:05:01;;;;;;;0.10;0.10;;;;;;;17.18;67.08;101569.78;5033024;28;20033;-81
2023/05/09 04:07:28;;;;;;;0.15;0.15;;;;;;;17.18;66.96;101569.78;5036249;28;20107;-81
2023/05/09 04:09:55;;;;;;;0.10;0.10;;;;;;;17.17;66.95;101565.34;5028455;28;20073;-81
2023/05/09 04:12:21;;;;;;;0.17;0.17;;;;;;;17.17;67.28;101565.34;5037127;28;20052;-81
2023/05/09 04:14:47;;;;;;;0.08;0.08;;;;;;;17.16;67.38;101568.94;5032691;28;20029;-81
2023/05/09 04:17:13;;;;;;;0.68;0.68;;;;;;;17.16;67.20;101563.59;5027791;28;20393;-81
2023/05/09 04:19:39;;;;;;;0.28;0.28;;;;;;;17.14;67.62;101561.84;5033052;28;20037;-81
2023/05/09 04:22:05;;;;;;;0.10;0.10;;;;;;;17.14;67.39;101556.47;5035288;28;20034;-80
2023/05/09 04:24:31;;;;;;;21.17;0.95;;;;;;;17.17;67.41;101560.00;5034322;28;20404;-80
2023/05/09 04:26:57;;;;;;;0.10;0.10;;;;;;;17.16;67.52;101558.22;5027419;28;20400;-80
2023/05/09 04:29:23;;;;;;;0.10;0.10;;;;;;;17.18;67.57;101561.75;5025927;28;20040;-80
2023/05/09 04:31:49;;;;;;;0.47;0.47;;;;;;;17.18;67.73;101556.38;5036347;28;20048;-81
2023/05/09 04:34:15;;;;;;;0.17;0.17;;;;;;;17.17;67.29;101550.16;5033274;28;20072;-80
2023/05/09 04:36:42;;;;;;;0.10;0.10;;;;;;;17.19;67.66;101552.78;5037934;28;20048;-81
2023/05/09 04:39:09;;;;;;;0.00;0.00;;;;;;;17.21;67.55;101550.91;5033987;28;20113;-81
2023/05/09 04:41:35;;;;;;;0.00;0.00;;;;;;;17.23;67.41;101554.41;5034718;28;20041;-81
2023/05/09 04:44:02;;;;;;;0.13;0.13;;;;;;;17.24;67.59;101553.50;5038132;28;20057;-81
2023/05/09 04:46:28;;;;;;;0.10;0.10;;;;;;;17.25;67.42;101553.44;5027291;28;20473;-81
2023/05/09 04:48:54;;;;;;;0.28;0.28;;;;;;;17.26;67.32;101548.97;5029071;28;20222;-81
2023/05/09 04:51:20;;;;;;;0.35;0.35;;;;;;;17.26;67.51;101541.78;5027579;28;20076;-81
2023/05/09 04:53:46;;;;;;;0.10;0.10;;;;;;;17.28;67.28;101539.03;5023314;28;20059;-81
2023/05/09 04:56:12;;;;;;;0.20;0.20;;;;;;;17.28;67.67;101536.38;5023877;28;20045;-81
2023/05/09 04:58:39;;;;;;;0.60;0.60;;;;;;;17.30;67.76;101531.84;5027016;28;20049;-81
2023/05/09 05:01:05;;;;;;;0.10;0.10;;;;;;;17.32;67.68;101524.63;5026652;28;20033;-81
2023/05/09 05:03:32;;;;;;;13.98;1.33;;;;;;;17.35;67.73;101524.50;5023151;28;20058;-81
2023/05/09 05:05:58;;;;;;;0.10;0.10;;;;;;;17.36;67.81;101522.69;5034329;28;20083;-81
2023/05/09 05:08:24;;;;;;;0.10;0.10;;;;;;;17.37;67.94;101519.06;5024775;28;20150;-81
2023/05/09 05:10:50;;;;;;;0.05;0.05;;;;;;;17.37;67.88;101519.97;5035724;28;20029;-81
2023/05/09 05:13:16;;;;;;;0.10;0.10;;;;;;;17.37;67.58;101503.91;5031299;28;20109;-81
2023/05/09 05:15:42;;;;;;;0.28;0.28;;;;;;;17.37;67.21;101498.53;5029136;28;20046;-80
2023/05/09 05:18:08;;;;;;;0.28;0.28;;;;;;;17.37;67.77;101495.88;5029387;28;20083;-81
2023/05/09 05:20:35;;;;;;;0.10;0.10;;;;;;;17.38;67.57;101494.03;5032266;28;20052;-80
2023/05/09 05:23:01;;;;;;;0.10;0.10;;;;;;;17.38;67.60;101484.19;5028946;28;20033;-80
2023/05/09 05:25:27;;;;;;;0.05;0.05;;;;;;;17.38;67.66;101483.31;5027249;28;20018;-80
2023/05/09 05:27:53;;;;;;;0.80;0.57;;;;;;;17.33;67.70;101478.13;5021634;28;20026;-79
2023/05/09 05:30:19;;;;;;;0.10;0.10;;;;;;;17.29;67.83;101472.03;5027371;28;20030;-80
2023/05/09 05:32:46;;;;;;;0.10;0.10;;;;;;;17.33;67.73;101469.25;5036411;28;20029;-79
2023/05/09 05:35:12;;;;;;;0.10;0.10;;;;;;;17.32;67.52;101476.41;5052451;28;20037;-80
2023/05/09 05:37:38;;;;;;;0.10;0.10;;;;;;;17.32;67.52;101473.75;5051522;28;20505;-80
2023/05/09 05:40:05;;;;;;;0.40;0.40;;;;;;;17.32;67.63;101473.75;5038022;28;20044;-80
2023/05/09 05:42:32;;;;;;;0.10;0.10;;;;;;;17.31;68.18;101477.34;5033235;28;20145;-81
2023/05/09 05:45:05;;;;;;;0.10;0.10;;;;;;;17.32;67.51;101475.53;5035474;28;20822;-81
2023/05/09 05:47:33;;;;;;;0.22;0.22;;;;;;;17.29;67.77;101485.41;5027466;28;20116;-79
2023/05/09 05:49:59;;;;;;;0.20;0.20;;;;;;;17.29;67.68;101489.91;5031063;28;20044;-81
2023/05/09 05:52:26;;;;;;;0.52;0.52;;;;;;;17.25;67.96;101483.78;5028697;28;20030;-81
2023/05/09 05:54:52;;;;;;;0.10;0.10;;;;;;;17.24;68.04;101486.53;5025310;28;20063;-81
2023/05/09 05:57:18;;;;;;;0.10;0.10;;;;;;;17.22;67.85;101472.31;5026624;28;20053;-81
2023/05/09 05:59:49;;;;;;;0.00;0.00;;;;;;;17.18;68.18;101482.28;5031258;28;20038;-81
2023/05/09 06:02:16;;;;;;;0.08;0.08;;;;;;;17.13;67.86;101479.78;5025911;28;20493;-80
2023/05/09 06:04:43;;;;;;;0.10;0.10;;;;;;;17.11;68.38;101478.97;5032470;28;20042;-81
2023/05/09 06:07:09;;;;;;;0.10;0.10;;;;;;;17.13;68.28;101474.44;5028271;28;20678;-81
2023/05/09 06:09:36;;;;;;;0.45;0.45;;;;;;;17.14;68.38;101462.75;5031937;28;20049;-80
2023/05/09 06:12:02;;;;;;;0.08;0.08;;;;;;;17.16;68.23;101468.09;5023105;28;20090;-79
2023/05/09 06:14:28;;;;;;;0.10;0.10;;;;;;;17.18;68.53;101468.03;5027267;28;20040;-80
2023/05/09 06:16:54;;;;;;;0.10;0.10;;;;;;;17.20;68.27;101469.72;5030380;28;20037;-80
2023/05/09 06:19:20;;;;;;;0.47;0.43;;;;;;;17.23;68.97;101468.72;5021826;28;20033;-80
2023/05/09 06:21:46;;;;;;;0.57;0.57;;;;;;;17.25;68.74;101459.69;5026666;28;20033;-81
2023/05/09 06:24:12;;;;;;;0.10;0.10;;;;;;;17.27;68.65;101454.28;5024533;28;20041;-80
2023/05/09 06:26:38;;;;;;;0.10;0.10;;;;;;;17.27;68.58;101454.28;5028195;28;20508;-80
2023/05/09 06:29:05;;;;;;;0.10;0.10;;;;;;;17.26;68.90;101455.22;5023391;28;20033;-83
2023/05/09 06:31:31;;;;;;;0.10;0.10;;;;;;;17.27;68.69;101455.16;5023644;28;20093;-81
2023/05/09 06:33:58;;;;;;;0.20;0.20;;;;;;;17.27;68.92;101454.28;5030099;28;20033;-82
2023/05/09 06:36:25;;;;;;;0.17;0.17;;;;;;;17.28;68.66;101451.56;5025047;28;20033;-80
2023/05/09 06:38:51;;;;;;;0.20;0.20;;;;;;;17.28;68.56;101446.19;5029356;28;20413;-83
2023/05/09 06:41:17;;;;;;;0.10;0.10;;;;;;;17.32;68.87;101443.38;5027291;28;20033;-79
2023/05/09 06:43:43;;;;;;;0.10;0.10;;;;;;;17.36;69.24;101440.53;5031288;28;20040;-81
2023/05/09 06:46:09;;;;;;;0.10;0.10;;;;;;;17.35;68.74;101430.75;5030486;28;20041;-81
2023/05/09 06:48:35;;;;;;;1.08;0.95;;;;;;;17.34;68.99;101442.38;5024032;28;20037;-80
2023/05/09 06:51:01;;;;;;;0.75;0.57;;;;;;;17.34;68.92;101431.69;5032713;28;20110;-82
2023/05/09 06:53:27;;;;;;;0.10;0.10;;;;;;;17.34;69.32;101430.81;5029098;28;20754;-82
2023/05/09 06:55:54;;;;;;;0.60;0.40;;;;;;;17.33;69.09;101427.25;5032370;28;20566;-81
2023/05/09 06:58:20;;;;;;;0.00;0.00;;;;;;;17.35;69.21;101428.06;5022353;28;20089;-83
2023/05/09 07:00:46;;;;;;;0.00;0.00;;;;;;;17.35;69.32;101425.41;5024333;28;20053;-81
2023/05/09 07:03:12;;;;;;;0.30;0.30;;;;;;;17.29;69.38;101420.28;5026296;28;20079;-81
2023/05/09 07:05:38;;;;;;;0.10;0.10;;;;;;;17.32;69.53;101417.50;5035364;28;20053;-81
2023/05/09 07:08:04;;;;;;;0.10;0.10;;;;;;;17.34;69.76;101412.94;5030933;28;20519;-79
2023/05/09 07:10:31;;;;;;;0.10;0.10;;;;;;;17.34;69.26;101415.59;5030821;28;20049;-82
2023/05/09 07:12:57;;;;;;;0.10;0.10;;;;;;;17.36;69.60;101411.06;5032285;28;20038;-82
2023/05/09 07:15:23;;;;;;;0.10;0.10;;;;;;;17.35;69.74;101409.31;5030333;28;20059;-83
2023/05/09 07:17:49;;;;;;;0.10;0.10;;;;;;;17.34;69.71;101399.53;5033778;28;20032;-83
2023/05/09 07:20:15;;;;;;;0.10;0.10;;;;;;;17.28;70.03;101399.78;5025494;28;20025;-83
2023/05/09 07:22:41;;;;;;;1.02;0.93;;;;;;;17.27;69.97;101400.72;5036289;28;20029;-83
2023/05/09 07:25:08;;;;;;;0.10;0.10;;;;;;;17.27;70.10;101395.34;5030780;28;21557;-83
2023/05/09 07:27:35;;;;;;;0.10;0.10;;;;;;;17.28;69.95;101397.09;5039648;28;20029;-83
2023/05/09 07:30:03;;;;;;;0.10;0.10;;;;;;;17.32;70.28;101381.78;5031067;28;20036;-83
2023/05/09 07:32:29;;;;;;;0.10;0.10;;;;;;;17.37;70.12;101382.47;5033650;28;20030;-83
2023/05/09 07:34:55;;;;;;;0.10;0.10;;;;;;;17.40;70.32;101379.69;5043681;28;20095;-84
2023/05/09 07:37:21;;;;;;;0.80;0.80;;;;;;;17.44;70.32;101371.44;5034604;28;20044;-85
2023/05/09 07:39:47;;;;;;;0.10;0.10;;;;;;;17.46;71.02;101369.59;5029756;28;20096;-84
2023/05/09 07:42:14;;;;;;;0.10;0.10;;;;;;;17.51;70.31;101371.19;5041080;28;20085;-84
2023/05/09 07:44:40;;;;;;;0.30;0.30;;;;;;;17.52;70.83;101367.59;5051596;28;20124;-85
2023/05/09 07:47:07;;;;;;;0.43;0.43;;;;;;;17.55;70.92;101356.75;5032378;28;20029;-84
2023/05/09 07:49:34;;;;;;;0.08;0.08;;;;;;;17.58;70.48;101359.28;5037230;28;20033;-84
2023/05/09 07:52:00;;;;;;;0.10;0.10;;;;;;;17.57;70.29;101361.13;5037805;28;20037;-84
2023/05/09 07:54:26;;;;;;;1.90;1.65;;;;;;;17.60;70.69;101360.13;5036663;28;20025;-84
2023/05/09 07:56:53;;;;;;;0.30;0.28;;;;;;;17.60;70.69;101352.06;5038890;28;20036;-83
2023/05/09 07:59:20;;;;;;;0.15;0.15;;;;;;;17.68;70.42;101355.28;5031294;28;20058;-84
2023/05/09 08:01:46;;;;;;;0.10;0.10;;;;;;;17.70;70.11;101345.38;5033177;28;20044;-86
2023/05/09 08:04:12;;;;;;;0.10;0.10;;;;;;;17.68;70.04;101336.53;5033732;28;20032;-83
2023/05/09 08:06:38;;;;;;;0.47;0.47;;;;;;;17.61;70.36;101337.75;5032958;28;20512;-84
2023/05/09 08:09:04;;;;;;;0.20;0.20;;;;;;;17.59;70.37;101336.94;5035011;28;20025;-83
2023/05/09 08:11:33;;;;;;;0.10;0.10;;;;;;;17.58;70.71;101324.47;5042096;28;20033;-82
2023/05/09 08:13:59;;;;;;;0.30;0.30;;;;;;;17.58;70.49;101325.34;5042921;28;20029;-84
2023/05/09 08:16:26;;;;;;;0.10;0.10;;;;;;;17.61;70.53;101329.72;5032878;28;20056;-83
2023/05/09 08:18:53;;;;;;;0.32;0.32;;;;;;;17.59;70.44;101329.75;5031503;28;20036;-83
2023/05/09 08:21:20;;;;;;;0.10;0.10;;;;;;;17.59;70.66;101324.41;5034479;28;20064;-84
2023/05/09 08:23:46;;;;;;;0.22;0.22;;;;;;;17.60;70.78;101322.59;5030197;28;20041;-84
2023/05/09 08:26:12;;;;;;;1.00;1.00;;;;;;;17.58;70.60;101314.63;5036617;28;20021;-84
2023/05/09 08:28:38;;;;;;;0.57;0.57;;;;;;;17.59;70.83;101307.47;5032145;28;20041;-84
2023/05/09 08:31:04;;;;;;;0.20;0.20;;;;;;;17.59;70.78;101304.78;5033347;28;20445;-84
2023/05/09 08:33:30;;;;;;;0.20;0.20;;;;;;;17.58;70.91;101308.38;5047225;28;20014;-83
2023/05/09 08:35:56;;;;;;;0.10;0.10;;;;;;;17.58;70.62;101298.56;5057915;28;20042;-83
2023/05/09 08:38:23;;;;;;;0.10;0.10;;;;;;;17.59;70.88;101294.06;5029953;28;21029;-83
2023/05/09 08:40:49;;;;;;;0.20;0.20;;;;;;;17.58;71.19;101287.84;5039585;28;20036;-84
2023/05/09 08:43:18;;;;;;;0.10;0.10;;;;;;;17.59;71.20;101297.59;5035083;28;20049;-83
2023/05/09 08:45:50;;;;;;;0.10;0.10;;;;;;;17.63;70.83;101295.66;5038145;28;20033;-81
2023/05/09 08:48:17;;;;;;;0.00;0.00;;;;;;;17.61;71.04;101295.75;5026760;28;20076;-83
2023/05/09 08:50:44;;;;;;;0.25;0.25;;;;;;;17.61;70.75;101292.19;5037010;28;20029;-85
2023/05/09 08:53:12;;;;;;;0.10;0.10;;;;;;;17.63;70.82;101288.53;5028764;28;20112;-83
2023/05/09 08:55:38;;;;;;;0.10;0.10;;;;;;;17.62;70.93;101280.56;5034321;28;20041;-84
2023/05/09 08:58:04;;;;;;;0.20;0.20;;;;;;;17.54;71.10;101285.34;5032489;28;20041;-83
2023/05/09 09:00:31;;;;;;;0.70;0.52;;;;;;;17.53;70.77;101283.59;5025920;28;20041;-82
2023/05/09 09:03:01;;;;;;;0.10;0.10;;;;;;;17.62;70.61;101283.22;5032117;28;20025;-81
2023/05/09 09:05:29;;;;;;;0.10;0.10;;;;;;;17.60;70.64;101279.75;5034083;28;20076;-80
2023/05/09 09:07:57;;;;;;;0.10;0.10;;;;;;;17.59;70.87;101273.50;5039080;28;20029;-82
2023/05/09 09:10:26;;;;;;;0.57;0.57;;;;;;;17.63;70.63;101284.94;5027373;28;20041;-80
2023/05/09 09:12:56;;;;;;;0.22;0.22;;;;;;;17.66;70.62;101273.22;5029883;28;20041;-81
2023/05/09 09:15:25;;;;;;;0.10;0.10;;;;;;;17.62;70.47;101272.50;5029693;28;20033;-81
2023/05/09 09:17:55;;;;;;;0.10;0.10;;;;;;;17.62;70.66;101269.84;5023843;28;20065;-82
2023/05/09 09:20:25;;;;;;;0.20;0.20;;;;;;;17.63;70.69;101260.84;5029077;28;20112;-82
2023/05/09 09:22:57;;;;;;;0.00;0.00;;;;;;;17.65;70.60;101264.31;5028001;28;20072;-83
2023/05/09 09:25:23;;;;;;;0.10;0.10;;;;;;;17.67;70.78;101259.78;5023413;28;20029;-83
2023/05/09 09:27:49;;;;;;;0.00;0.00;;;;;;;17.66;70.91;101262.50;5023898;28;20033;-83
2023/05/09 09:30:16;;;;;;;0.10;0.10;;;;;;;17.66;70.57;101262.50;5030469;28;20524;-84
2023/05/09 09:32:42;;;;;;;0.10;0.10;;;;;;;17.64;71.08;101257.22;5029231;28;20535;-83
2023/05/09 09:35:10;;;;;;;0.10;0.10;;;;;;;17.67;70.92;101254.44;5025094;28;20104;-83
2023/05/09 09:37:40;;;;;;;0.10;0.10;;;;;;;17.69;71.03;101257.88;5032260;28;20054;-82
2023/05/09 09:40:09;;;;;;;0.25;0.25;;;;;;;17.71;71.02;101250.66;5044693;28;20131;-84
2023/05/09 09:42:51;;;;;;;0.00;0.00;;;;;;;17.79;70.72;101253.91;5041220;28;20064;-84
2023/05/09 09:45:19;;;;;;;0.20;0.20;;;;;;;17.75;70.75;101252.25;5046129;28;20061;-84
2023/05/09 09:47:47;;;;;;;0.30;0.30;;;;;;;17.75;71.25;101254.94;5041362;28;20014;-84
2023/05/09 09:50:15;;;;;;;0.20;0.20;;;;;;;17.74;71.00;101247.84;5037261;28;21232;-83
2023/05/09 09:55:22;;;;;;;0.25;0.25;;;;;;;17.70;70.83;101243.56;5037868;27;20128;-81
2023/05/09 09:57:50;;;;;;;0.10;0.10;;;;;;;17.68;70.88;101245.41;5037013;28;20036;-79
2023/05/09 10:00:18;;;;;;;0.22;0.22;;;;;;;17.68;70.72;101240.06;5037484;28;20032;-79
2023/05/09 10:05:29;;;;;;;0.08;0.08;;;;;;;17.66;71.18;101231.25;5073327;28;20410;-79
2023/05/09 10:07:58;;;;;;;0.10;0.10;;;;;;;17.69;71.11;101231.09;5058347;28;20089;-79
2023/05/09 10:10:27;;;;;;;0.28;0.28;;;;;;;17.69;71.04;101238.28;5060074;28;20056;-80
2023/05/09 10:13:00;;;;;;;0.10;0.10;;;;;;;17.72;71.23;101233.66;5050218;28;20029;-77
2023/05/09 10:15:29;;;;;;;0.10;0.10;;;;;;;17.71;71.39;101234.59;5052923;28;20036;-79
2023/05/09 10:17:57;;;;;;;0.10;0.10;;;;;;;17.74;71.33;101228.22;5057203;28;20029;-79
2023/05/09 10:20:24;;;;;;;0.10;0.10;;;;;;;17.73;71.26;101221.13;5061223;28;20104;-79
2023/05/09 10:22:53;;;;;;;0.10;0.10;;;;;;;17.75;71.33;101224.59;5054286;28;20033;-82
2023/05/09 10:25:21;;;;;;;0.10;0.10;;;;;;;17.79;71.40;101219.06;5054933;28;20297;-78
2023/05/09 10:27:49;;;;;;;0.10;0.10;;;;;;;17.85;71.46;101222.41;5049381;28;20033;-78
2023/05/09 10:33:15;;;;;;;0.52;0.20;;;;;;;17.94;71.74;101214.84;5114769;27;20392;-79
2023/05/09 10:35:45;;;;;;;0.10;0.10;;;;;;;17.98;71.62;101210.22;5097073;28;20035;-81
2023/05/09 10:38:12;;;;;;;0.05;0.05;;;;;;;17.99;71.76;101209.25;5098760;28;20039;-77
2023/05/09 10:40:40;;;;;;;0.03;0.03;;;;;;;18.07;71.60;101206.25;5103542;28;20035;-77
2023/05/09 10:43:07;;;;;;;0.10;0.10;;;;;;;18.09;71.67;101202.56;5106849;28;20039;-80
2023/05/09 10:45:34;;;;;;;0.15;0.15;;;;;;;18.07;71.59;101199.06;5107048;28;20091;-81
2023/05/09 10:48:02;;;;;;;0.10;0.10;;;;;;;18.09;71.61;101190.94;5099623;28;20032;-79
2023/05/09 10:50:30;;;;;;;0.10;0.10;;;;;;;18.08;71.86;101195.44;5098780;28;20146;-81
2023/05/09 10:55:50;;;;;;;0.10;0.10;;;;;;;18.07;71.26;101192.84;5123141;27;20380;-80
2023/05/09 10:58:19;;;;;;;0.10;0.10;;;;;;;18.02;71.68;101190.38;5109896;28;20031;-80
2023/05/09 11:00:47;;;;;;;0.05;0.05;;;;;;;17.99;71.17;101185.13;5121126;28;20027;-80
2023/05/09 11:03:13;;;;;;;0.10;0.10;;;;;;;17.98;71.37;101183.41;5110404;28;20032;-80
2023/05/09 11:05:40;;;;;;;0.10;0.10;;;;;;;17.97;71.50;101180.78;5108034;28;20043;-81
2023/05/09 11:08:28;;;;;;;0.15;0.15;;;;;;;18.06;71.39;101170.50;5117070;28;20054;-81
2023/05/09 11:10:56;;;;;;;0.20;0.20;;;;;;;18.01;71.55;101175.22;5116471;27;20036;-78
2023/05/09 11:13:24;;;;;;;0.35;0.35;;;;;;;17.99;71.50;101162.81;5113821;28;20024;-77
2023/05/09 11:16:04;;;;;;;0.10;0.10;;;;;;;18.03;71.12;101162.63;5099098;28;20092;-80
2023/05/09 11:18:31;;;;;;;0.10;0.10;;;;;;;17.97;71.52;101170.94;5121174;28;20052;-81
2023/05/09 11:20:58;;;;;;;0.30;0.30;;;;;;;17.97;71.51;101157.53;5101740;28;20020;-80
2023/05/09 11:23:28;;;;;;;0.10;0.10;;;;;;;18.00;71.71;101175.28;5100670;28;20028;-79
2023/05/09 11:26:06;;;;;;;0.10;0.10;;;;;;;18.01;71.75;101153.75;5108549;28;20020;-81
2023/05/09 11:28:34;;;;;;;0.75;0.75;;;;;;;17.99;71.52;101155.63;5102828;28;20025;-81
2023/05/09 11:31:17;;;;;;;0.20;0.20;;;;;;;18.06;71.56;101150.88;5104267;28;20019;-83
2023/05/09 11:33:47;;;;;;;0.10;0.10;;;;;;;18.01;71.84;101151.09;5104336;28;20400;-78
2023/05/09 11:39:01;;;;;;;0.22;0.22;;;;;;;17.91;72.23;101152.44;5117076;27;1216945;-79
2023/05/09 11:41:30;;;;;;;0.10;0.10;;;;;;;17.93;71.88;101143.38;5134179;27;20020;-80
2023/05/09 11:43:58;;;;;;;0.03;0.03;;;;;;;17.89;71.61;101135.53;5116173;27;20047;-79